sensor_id;sensor_type;location;lat;lon;timestamp;temperature;humidity
32877;DHT22;19226;51.600;8.034;2023-03-30T00:01:58;13.60;99.90
32877;DHT22;19226;51.600;8.034;2023-03-30T00:04:43;13.50;99.90
32877;DHT22;19226;51.600;8.034;2023-03-30T00:07:28;13.50;99.90
32877;DHT22;19226;51.600;8.034;2023-03-30T00:10:15;13.50;99.90
32877;DHT22;19226;51.600;8.034;2023-03-30T00:13:03;13.50;99.90
32877;DHT22;19226;51.600;8.034;2023-03-30T00:15:48;13.50;99.90
32877;DHT22;19226;51.600;8.034;2023-03-30T00:18:33;13.50;99.90
32877;DHT22;19226;51.600;8.034;2023-03-30T00:21:17;13.50;99.90
32877;DHT22;19226;51.600;8.034;2023-03-30T00:24:04;13.50;99.90
32877;DHT22;19226;51.600;8.034;2023-03-30T00:26:48;13.60;99.90
32877;DHT22;19226;51.600;8.034;2023-03-30T00:29:33;13.60;99.90
32877;DHT22;19226;51.600;8.034;2023-03-30T00:32:17;13.60;99.90
32877;DHT22;19226;51.600;8.034;2023-03-30T00:35:02;13.50;99.90
32877;DHT22;19226;51.600;8.034;2023-03-30T00:37:48;13.50;99.90
32877;DHT22;19226;51.600;8.034;2023-03-30T00:40:34;13.50;99.90
32877;DHT22;19226;51.600;8.034;2023-03-30T00:43:20;13.40;99.90
32877;DHT22;19226;51.600;8.034;2023-03-30T00:46:04;13.40;99.90
32877;DHT22;19226;51.600;8.034;2023-03-30T00:48:49;13.40;99.90
32877;DHT22;19226;51.600;8.034;2023-03-30T00:51:37;13.40;99.90
32877;DHT22;19226;51.600;8.034;2023-03-30T00:54:23;13.40;99.90
32877;DHT22;19226;51.600;8.034;2023-03-30T00:57:08;13.40;99.90
32877;DHT22;19226;51.600;8.034;2023-03-30T00:59:53;13.40;99.90
32877;DHT22;19226;51.600;8.034;2023-03-30T01:02:42;13.40;99.90
32877;DHT22;19226;51.600;8.034;2023-03-30T01:05:29;13.40;99.90
32877;DHT22;19226;51.600;8.034;2023-03-30T01:08:15;13.40;99.90
32877;DHT22;19226;51.600;8.034;2023-03-30T01:11:03;13.40;99.90
32877;DHT22;19226;51.600;8.034;2023-03-30T01:13:51;13.40;99.90
32877;DHT22;19226;51.600;8.034;2023-03-30T01:46:49;13.50;99.90
32877;DHT22;19226;51.600;8.034;2023-03-30T01:52:37;13.40;99.90
32877;DHT22;19226;51.600;8.034;2023-03-30T01:55:43;13.40;99.90
32877;DHT22;19226;51.600;8.034;2023-03-30T01:58:38;13.40;99.90
32877;DHT22;19226;51.600;8.034;2023-03-30T02:01:28;13.40;99.90
32877;DHT22;19226;51.600;8.034;2023-03-30T02:04:19;13.40;99.90
32877;DHT22;19226;51.600;8.034;2023-03-30T02:07:10;13.50;99.90
32877;DHT22;19226;51.600;8.034;2023-03-30T02:10:02;13.50;99.90
32877;DHT22;19226;51.600;8.034;2023-03-30T02:12:47;13.50;99.90
32877;DHT22;19226;51.600;8.034;2023-03-30T02:15:39;13.50;99.90
32877;DHT22;19226;51.600;8.034;2023-03-30T02:18:24;13.60;99.90
32877;DHT22;19226;51.600;8.034;2023-03-30T02:21:09;13.60;99.90
32877;DHT22;19226;51.600;8.034;2023-03-30T02:23:54;13.70;99.90
32877;DHT22;19226;51.600;8.034;2023-03-30T02:26:40;13.80;99.90
32877;DHT22;19226;51.600;8.034;2023-03-30T02:29:28;13.90;99.90
32877;DHT22;19226;51.600;8.034;2023-03-30T02:32:21;14.00;99.90
32877;DHT22;19226;51.600;8.034;2023-03-30T02:41:39;14.30;99.90
32877;DHT22;19226;51.600;8.034;2023-03-30T02:47:44;14.40;99.90
32877;DHT22;19226;51.600;8.034;2023-03-30T02:59:50;14.70;99.90
32877;DHT22;19226;51.600;8.034;2023-03-30T03:02:52;14.80;99.90
32877;DHT22;19226;51.600;8.034;2023-03-30T03:05:43;14.80;99.90
32877;DHT22;19226;51.600;8.034;2023-03-30T03:08:33;14.90;99.90
32877;DHT22;19226;51.600;8.034;2023-03-30T03:11:18;15.00;99.90
32877;DHT22;19226;51.600;8.034;2023-03-30T03:14:03;15.00;99.90
32877;DHT22;19226;51.600;8.034;2023-03-30T03:16:50;15.10;99.90
32877;DHT22;19226;51.600;8.034;2023-03-30T03:19:35;15.10;99.90
32877;DHT22;19226;51.600;8.034;2023-03-30T03:22:20;15.10;99.90
32877;DHT22;19226;51.600;8.034;2023-03-30T03:25:05;15.10;99.90
32877;DHT22;19226;51.600;8.034;2023-03-30T03:28:01;15.20;99.90
32877;DHT22;19226;51.600;8.034;2023-03-30T03:30:52;15.20;99.90
32877;DHT22;19226;51.600;8.034;2023-03-30T03:33:40;15.20;99.90
32877;DHT22;19226;51.600;8.034;2023-03-30T03:36:45;15.20;99.90
32877;DHT22;19226;51.600;8.034;2023-03-30T03:39:29;15.20;99.90
32877;DHT22;19226;51.600;8.034;2023-03-30T03:42:22;15.20;99.90
32877;DHT22;19226;51.600;8.034;2023-03-30T03:45:38;15.30;99.90
32877;DHT22;19226;51.600;8.034;2023-03-30T03:48:23;15.30;99.90
32877;DHT22;19226;51.600;8.034;2023-03-30T03:51:09;15.20;99.90
32877;DHT22;19226;51.600;8.034;2023-03-30T03:53:55;15.20;99.90
32877;DHT22;19226;51.600;8.034;2023-03-30T03:56:39;15.20;99.90
32877;DHT22;19226;51.600;8.034;2023-03-30T03:59:24;15.20;99.90
32877;DHT22;19226;51.600;8.034;2023-03-30T04:02:09;15.20;99.90
32877;DHT22;19226;51.600;8.034;2023-03-30T04:04:54;15.20;99.90
32877;DHT22;19226;51.600;8.034;2023-03-30T04:07:40;15.20;99.90
32877;DHT22;19226;51.600;8.034;2023-03-30T04:10:25;15.10;99.90
32877;DHT22;19226;51.600;8.034;2023-03-30T04:13:33;15.20;99.90
32877;DHT22;19226;51.600;8.034;2023-03-30T04:16:37;15.20;99.90
32877;DHT22;19226;51.600;8.034;2023-03-30T04:19:35;15.20;99.90
32877;DHT22;19226;51.600;8.034;2023-03-30T04:22:47;15.20;99.90
32877;DHT22;19226;51.600;8.034;2023-03-30T04:25:46;15.20;99.90
32877;DHT22;19226;51.600;8.034;2023-03-30T04:28:44;15.20;99.90
32877;DHT22;19226;51.600;8.034;2023-03-30T04:31:58;15.20;99.90
32877;DHT22;19226;51.600;8.034;2023-03-30T04:35:08;15.20;99.90
32877;DHT22;19226;51.600;8.034;2023-03-30T04:38:20;15.20;99.90
32877;DHT22;19226;51.600;8.034;2023-03-30T04:41:26;15.20;99.90
32877;DHT22;19226;51.600;8.034;2023-03-30T04:44:39;15.20;99.90
32877;DHT22;19226;51.600;8.034;2023-03-30T04:47:57;15.20;99.90
32877;DHT22;19226;51.600;8.034;2023-03-30T04:50:41;15.20;99.90
32877;DHT22;19226;51.600;8.034;2023-03-30T04:53:46;15.20;99.90
32877;DHT22;19226;51.600;8.034;2023-03-30T04:56:30;15.20;99.90
32877;DHT22;19226;51.600;8.034;2023-03-30T04:59:23;15.20;99.90
32877;DHT22;19226;51.600;8.034;2023-03-30T05:02:30;15.20;99.90
32877;DHT22;19226;51.600;8.034;2023-03-30T05:05:27;15.20;99.90
32877;DHT22;19226;51.600;8.034;2023-03-30T05:08:30;15.20;99.90
32877;DHT22;19226;51.600;8.034;2023-03-30T05:11:38;15.30;99.90
32877;DHT22;19226;51.600;8.034;2023-03-30T05:14:52;15.30;99.90
32877;DHT22;19226;51.600;8.034;2023-03-30T05:17:37;15.20;99.90
32877;DHT22;19226;51.600;8.034;2023-03-30T05:20:40;15.20;99.90
32877;DHT22;19226;51.600;8.034;2023-03-30T05:23:43;15.20;99.90
32877;DHT22;19226;51.600;8.034;2023-03-30T05:26:49;15.20;99.90
32877;DHT22;19226;51.600;8.034;2023-03-30T05:29:47;15.20;99.90
32877;DHT22;19226;51.600;8.034;2023-03-30T05:32:50;15.20;99.90
32877;DHT22;19226;51.600;8.034;2023-03-30T05:35:55;15.20;99.90
32877;DHT22;19226;51.600;8.034;2023-03-30T05:38:58;15.20;99.90
32877;DHT22;19226;51.600;8.034;2023-03-30T05:42:02;15.10;99.90
32877;DHT22;19226;51.600;8.034;2023-03-30T05:44:57;15.10;99.90
32877;DHT22;19226;51.600;8.034;2023-03-30T05:48:01;15.20;99.90
32877;DHT22;19226;51.600;8.034;2023-03-30T05:51:05;15.20;99.90
32877;DHT22;19226;51.600;8.034;2023-03-30T05:54:11;15.20;99.90
32877;DHT22;19226;51.600;8.034;2023-03-30T05:57:14;15.20;99.90
32877;DHT22;19226;51.600;8.034;2023-03-30T06:00:07;15.10;99.90
32877;DHT22;19226;51.600;8.034;2023-03-30T06:03:00;15.10;99.90
32877;DHT22;19226;51.600;8.034;2023-03-30T06:05:51;15.10;99.90
32877;DHT22;19226;51.600;8.034;2023-03-30T06:08:37;15.10;99.90
32877;DHT22;19226;51.600;8.034;2023-03-30T06:11:23;15.10;99.90
32877;DHT22;19226;51.600;8.034;2023-03-30T06:14:23;15.10;99.90
32877;DHT22;19226;51.600;8.034;2023-03-30T06:17:43;15.10;99.90
32877;DHT22;19226;51.600;8.034;2023-03-30T06:20:28;15.00;99.90
32877;DHT22;19226;51.600;8.034;2023-03-30T06:23:15;15.00;99.90
32877;DHT22;19226;51.600;8.034;2023-03-30T06:26:00;15.00;99.90
32877;DHT22;19226;51.600;8.034;2023-03-30T06:28:49;15.00;99.90
32877;DHT22;19226;51.600;8.034;2023-03-30T06:31:34;15.00;99.90
32877;DHT22;19226;51.600;8.034;2023-03-30T06:34:39;15.00;99.90
32877;DHT22;19226;51.600;8.034;2023-03-30T06:37:24;15.10;99.90
32877;DHT22;19226;51.600;8.034;2023-03-30T06:40:09;15.10;99.90
32877;DHT22;19226;51.600;8.034;2023-03-30T06:42:57;15.10;99.90
32877;DHT22;19226;51.600;8.034;2023-03-30T06:45:55;15.20;99.90
32877;DHT22;19226;51.600;8.034;2023-03-30T06:48:40;15.20;99.90
32877;DHT22;19226;51.600;8.034;2023-03-30T06:51:44;15.20;99.90
32877;DHT22;19226;51.600;8.034;2023-03-30T06:54:29;15.20;99.90
32877;DHT22;19226;51.600;8.034;2023-03-30T06:57:22;15.30;99.90
32877;DHT22;19226;51.600;8.034;2023-03-30T07:00:07;15.20;99.90
32877;DHT22;19226;51.600;8.034;2023-03-30T07:02:58;15.30;99.90
32877;DHT22;19226;51.600;8.034;2023-03-30T07:05:57;15.30;99.90
32877;DHT22;19226;51.600;8.034;2023-03-30T07:08:51;15.30;99.90
32877;DHT22;19226;51.600;8.034;2023-03-30T07:11:41;15.30;99.90
32877;DHT22;19226;51.600;8.034;2023-03-30T07:14:25;15.40;99.90
32877;DHT22;19226;51.600;8.034;2023-03-30T07:17:10;15.40;99.90
32877;DHT22;19226;51.600;8.034;2023-03-30T07:19:54;15.50;99.90
32877;DHT22;19226;51.600;8.034;2023-03-30T07:22:39;15.50;99.90
32877;DHT22;19226;51.600;8.034;2023-03-30T07:25:24;15.60;99.90
32877;DHT22;19226;51.600;8.034;2023-03-30T07:28:08;15.70;99.90
32877;DHT22;19226;51.600;8.034;2023-03-30T07:30:53;15.80;99.90
32877;DHT22;19226;51.600;8.034;2023-03-30T07:33:40;15.80;99.90
32877;DHT22;19226;51.600;8.034;2023-03-30T07:36:28;15.90;99.90
32877;DHT22;19226;51.600;8.034;2023-03-30T07:39:13;15.90;99.90
32877;DHT22;19226;51.600;8.034;2023-03-30T07:42:00;16.00;99.90
32877;DHT22;19226;51.600;8.034;2023-03-30T07:44:44;16.10;99.90
32877;DHT22;19226;51.600;8.034;2023-03-30T07:47:34;16.10;99.90
32877;DHT22;19226;51.600;8.034;2023-03-30T07:50:19;16.20;99.90
32877;DHT22;19226;51.600;8.034;2023-03-30T07:53:05;16.20;99.90
32877;DHT22;19226;51.600;8.034;2023-03-30T07:55:50;16.20;99.90
32877;DHT22;19226;51.600;8.034;2023-03-30T07:58:43;16.20;99.90
32877;DHT22;19226;51.600;8.034;2023-03-30T08:01:28;16.30;99.90
32877;DHT22;19226;51.600;8.034;2023-03-30T08:04:21;16.30;99.90
32877;DHT22;19226;51.600;8.034;2023-03-30T08:07:08;16.30;99.90
32877;DHT22;19226;51.600;8.034;2023-03-30T08:09:53;16.40;99.90
32877;DHT22;19226;51.600;8.034;2023-03-30T08:12:38;16.50;99.90
32877;DHT22;19226;51.600;8.034;2023-03-30T08:15:23;16.50;99.90
32877;DHT22;19226;51.600;8.034;2023-03-30T08:18:08;16.50;99.90
32877;DHT22;19226;51.600;8.034;2023-03-30T08:20:52;16.50;99.90
32877;DHT22;19226;51.600;8.034;2023-03-30T08:23:37;16.50;99.90
32877;DHT22;19226;51.600;8.034;2023-03-30T08:26:22;16.50;99.90
32877;DHT22;19226;51.600;8.034;2023-03-30T08:29:06;16.50;99.90
32877;DHT22;19226;51.600;8.034;2023-03-30T08:31:51;16.50;99.90
32877;DHT22;19226;51.600;8.034;2023-03-30T08:34:35;16.50;99.90
32877;DHT22;19226;51.600;8.034;2023-03-30T08:37:20;16.30;99.90
32877;DHT22;19226;51.600;8.034;2023-03-30T08:40:05;16.10;99.90
32877;DHT22;19226;51.600;8.034;2023-03-30T08:43:03;16.10;99.90
32877;DHT22;19226;51.600;8.034;2023-03-30T08:45:50;15.90;99.90
32877;DHT22;19226;51.600;8.034;2023-03-30T08:48:35;15.80;99.90
32877;DHT22;19226;51.600;8.034;2023-03-30T08:51:27;15.70;99.90
32877;DHT22;19226;51.600;8.034;2023-03-30T08:54:17;15.60;99.90
32877;DHT22;19226;51.600;8.034;2023-03-30T08:57:07;15.50;99.90
32877;DHT22;19226;51.600;8.034;2023-03-30T09:00:07;15.50;99.90
32877;DHT22;19226;51.600;8.034;2023-03-30T09:03:44;15.60;99.90
32877;DHT22;19226;51.600;8.034;2023-03-30T09:06:13;15.60;99.90
32877;DHT22;19226;51.600;8.034;2023-03-30T09:09:03;15.70;99.90
32877;DHT22;19226;51.600;8.034;2023-03-30T09:11:56;15.70;99.90
32877;DHT22;19226;51.600;8.034;2023-03-30T09:14:47;15.70;99.90
32877;DHT22;19226;51.600;8.034;2023-03-30T09:17:40;15.70;99.90
32877;DHT22;19226;51.600;8.034;2023-03-30T09:20:28;15.70;99.90
32877;DHT22;19226;51.600;8.034;2023-03-30T09:23:15;15.60;99.90
32877;DHT22;19226;51.600;8.034;2023-03-30T09:27:08;15.70;99.90
32877;DHT22;19226;51.600;8.034;2023-03-30T09:29:29;15.80;99.90
32877;DHT22;19226;51.600;8.034;2023-03-30T09:32:32;15.60;99.90
32877;DHT22;19226;51.600;8.034;2023-03-30T09:35:33;15.60;99.90
32877;DHT22;19226;51.600;8.034;2023-03-30T09:38:20;15.50;99.90
32877;DHT22;19226;51.600;8.034;2023-03-30T09:41:27;15.40;99.90
32877;DHT22;19226;51.600;8.034;2023-03-30T09:44:35;15.40;99.90
32877;DHT22;19226;51.600;8.034;2023-03-30T09:47:33;15.30;99.90
32877;DHT22;19226;51.600;8.034;2023-03-30T09:50:24;15.30;99.90
32877;DHT22;19226;51.600;8.034;2023-03-30T09:53:30;15.40;99.90
32877;DHT22;19226;51.600;8.034;2023-03-30T09:59:32;15.60;99.90
32877;DHT22;19226;51.600;8.034;2023-03-30T10:02:19;15.60;99.90
32877;DHT22;19226;51.600;8.034;2023-03-30T10:05:03;15.60;99.90
32877;DHT22;19226;51.600;8.034;2023-03-30T10:07:55;15.60;99.90
32877;DHT22;19226;51.600;8.034;2023-03-30T10:10:41;15.70;99.90
32877;DHT22;19226;51.600;8.034;2023-03-30T10:13:36;15.90;99.90
32877;DHT22;19226;51.600;8.034;2023-03-30T10:16:24;16.10;99.90
32877;DHT22;19226;51.600;8.034;2023-03-30T10:19:18;16.30;99.90
32877;DHT22;19226;51.600;8.034;2023-03-30T10:22:16;16.50;99.90
32877;DHT22;19226;51.600;8.034;2023-03-30T10:25:17;16.80;99.90
32877;DHT22;19226;51.600;8.034;2023-03-30T10:28:32;17.00;99.90
32877;DHT22;19226;51.600;8.034;2023-03-30T10:31:19;17.30;99.90
32877;DHT22;19226;51.600;8.034;2023-03-30T10:34:13;17.50;99.90
32877;DHT22;19226;51.600;8.034;2023-03-30T10:36:58;17.70;99.90
32877;DHT22;19226;51.600;8.034;2023-03-30T10:39:44;17.90;99.90
32877;DHT22;19226;51.600;8.034;2023-03-30T10:42:31;17.90;99.90
32877;DHT22;19226;51.600;8.034;2023-03-30T10:45:19;17.70;99.90
32877;DHT22;19226;51.600;8.034;2023-03-30T10:48:09;17.50;99.90
32877;DHT22;19226;51.600;8.034;2023-03-30T10:51:09;17.40;99.90
32877;DHT22;19226;51.600;8.034;2023-03-30T11:00:01;16.20;99.90
32877;DHT22;19226;51.600;8.034;2023-03-30T11:03:12;16.10;99.90
32877;DHT22;19226;51.600;8.034;2023-03-30T11:06:22;16.10;99.90
32877;DHT22;19226;51.600;8.034;2023-03-30T11:09:13;16.00;99.90
32877;DHT22;19226;51.600;8.034;2023-03-30T11:12:02;15.80;99.90
32877;DHT22;19226;51.600;8.034;2023-03-30T11:17:54;15.50;99.90
32877;DHT22;19226;51.600;8.034;2023-03-30T11:20:49;15.30;99.90
32877;DHT22;19226;51.600;8.034;2023-03-30T11:23:44;15.20;99.90
32877;DHT22;19226;51.600;8.034;2023-03-30T11:26:33;15.10;99.90
32877;DHT22;19226;51.600;8.034;2023-03-30T11:35:17;15.10;99.90
32877;DHT22;19226;51.600;8.034;2023-03-30T11:38:12;15.20;99.90
32877;DHT22;19226;51.600;8.034;2023-03-30T11:41:04;15.30;99.90
32877;DHT22;19226;51.600;8.034;2023-03-30T11:43:49;15.70;99.90
32877;DHT22;19226;51.600;8.034;2023-03-30T11:47:03;15.80;99.90
32877;DHT22;19226;51.600;8.034;2023-03-30T11:53:32;16.30;99.90
32877;DHT22;19226;51.600;8.034;2023-03-30T11:56:45;16.30;99.90
32877;DHT22;19226;51.600;8.034;2023-03-30T12:05:36;16.80;99.90
32877;DHT22;19226;51.600;8.034;2023-03-30T12:11:32;17.10;99.90
32877;DHT22;19226;51.600;8.034;2023-03-30T12:17:42;17.20;99.90
32877;DHT22;19226;51.600;8.034;2023-03-30T12:23:35;17.40;99.90
32877;DHT22;19226;51.600;8.034;2023-03-30T12:26:27;17.50;99.90
32877;DHT22;19226;51.600;8.034;2023-03-30T12:29:14;17.50;99.90
32877;DHT22;19226;51.600;8.034;2023-03-30T12:34:46;17.80;99.90
32877;DHT22;19226;51.600;8.034;2023-03-30T12:37:33;17.90;99.90
32877;DHT22;19226;51.600;8.034;2023-03-30T12:40:23;17.90;99.90
32877;DHT22;19226;51.600;8.034;2023-03-30T12:43:21;17.70;99.90
32877;DHT22;19226;51.600;8.034;2023-03-30T12:46:16;17.70;99.90
32877;DHT22;19226;51.600;8.034;2023-03-30T12:49:32;17.90;99.90
32877;DHT22;19226;51.600;8.034;2023-03-30T12:58:31;18.00;99.90
32877;DHT22;19226;51.600;8.034;2023-03-30T13:01:38;17.90;99.90
32877;DHT22;19226;51.600;8.034;2023-03-30T13:04:38;17.70;99.90
32877;DHT22;19226;51.600;8.034;2023-03-30T13:07:28;17.50;99.90
32877;DHT22;19226;51.600;8.034;2023-03-30T13:17:12;16.90;99.90
32877;DHT22;19226;51.600;8.034;2023-03-30T13:20:18;16.50;99.90
32877;DHT22;19226;51.600;8.034;2023-03-30T13:29:03;16.20;99.90
32877;DHT22;19226;51.600;8.034;2023-03-30T13:31:54;16.10;99.90
32877;DHT22;19226;51.600;8.034;2023-03-30T13:35:04;15.90;99.90
32877;DHT22;19226;51.600;8.034;2023-03-30T13:38:21;15.60;99.90
32877;DHT22;19226;51.600;8.034;2023-03-30T13:41:33;15.40;99.90
32877;DHT22;19226;51.600;8.034;2023-03-30T13:47:48;15.00;99.90
32877;DHT22;19226;51.600;8.034;2023-03-30T13:51:12;14.70;99.90
32877;DHT22;19226;51.600;8.034;2023-03-30T13:54:18;14.60;99.90
32877;DHT22;19226;51.600;8.034;2023-03-30T13:57:34;14.40;99.90
32877;DHT22;19226;51.600;8.034;2023-03-30T14:00:44;14.30;99.90
32877;DHT22;19226;51.600;8.034;2023-03-30T14:03:52;14.40;99.90
32877;DHT22;19226;51.600;8.034;2023-03-30T14:06:43;14.60;99.90
32877;DHT22;19226;51.600;8.034;2023-03-30T14:09:32;14.80;99.90
32877;DHT22;19226;51.600;8.034;2023-03-30T14:12:21;14.90;99.90
32877;DHT22;19226;51.600;8.034;2023-03-30T14:18:12;15.30;99.90
32877;DHT22;19226;51.600;8.034;2023-03-30T14:21:10;15.40;99.90
32877;DHT22;19226;51.600;8.034;2023-03-30T14:24:03;15.60;99.90
32877;DHT22;19226;51.600;8.034;2023-03-30T14:26:47;15.80;99.90
32877;DHT22;19226;51.600;8.034;2023-03-30T14:29:33;16.00;99.90
32877;DHT22;19226;51.600;8.034;2023-03-30T14:32:26;16.10;99.90
32877;DHT22;19226;51.600;8.034;2023-03-30T14:35:15;16.10;99.90
32877;DHT22;19226;51.600;8.034;2023-03-30T14:38:01;15.90;99.90
32877;DHT22;19226;51.600;8.034;2023-03-30T14:40:46;15.90;99.90
32877;DHT22;19226;51.600;8.034;2023-03-30T14:43:34;15.80;99.90
32877;DHT22;19226;51.600;8.034;2023-03-30T14:46:23;15.80;99.90
32877;DHT22;19226;51.600;8.034;2023-03-30T14:49:27;15.70;99.90
32877;DHT22;19226;51.600;8.034;2023-03-30T14:52:18;15.70;99.90
32877;DHT22;19226;51.600;8.034;2023-03-30T14:55:05;15.50;99.90
32877;DHT22;19226;51.600;8.034;2023-03-30T14:57:51;15.70;99.90
32877;DHT22;19226;51.600;8.034;2023-03-30T15:00:36;15.90;99.90
32877;DHT22;19226;51.600;8.034;2023-03-30T15:03:25;16.20;99.90
32877;DHT22;19226;51.600;8.034;2023-03-30T15:06:14;16.20;99.90
32877;DHT22;19226;51.600;8.034;2023-03-30T15:09:01;16.30;99.90
32877;DHT22;19226;51.600;8.034;2023-03-30T15:12:00;16.20;99.90
32877;DHT22;19226;51.600;8.034;2023-03-30T15:14:46;16.20;99.90
32877;DHT22;19226;51.600;8.034;2023-03-30T15:17:33;16.30;99.90
32877;DHT22;19226;51.600;8.034;2023-03-30T15:20:18;16.30;99.90
32877;DHT22;19226;51.600;8.034;2023-03-30T15:23:03;16.20;99.90
32877;DHT22;19226;51.600;8.034;2023-03-30T15:25:48;16.20;99.90
32877;DHT22;19226;51.600;8.034;2023-03-30T15:28:44;16.10;99.90
32877;DHT22;19226;51.600;8.034;2023-03-30T15:31:30;16.20;99.90
32877;DHT22;19226;51.600;8.034;2023-03-30T15:34:16;16.20;99.90
32877;DHT22;19226;51.600;8.034;2023-03-30T15:37:00;16.20;99.90
32877;DHT22;19226;51.600;8.034;2023-03-30T15:39:48;16.20;99.90
32877;DHT22;19226;51.600;8.034;2023-03-30T15:42:32;16.20;99.90
32877;DHT22;19226;51.600;8.034;2023-03-30T15:45:26;16.10;99.90
32877;DHT22;19226;51.600;8.034;2023-03-30T15:48:50;16.00;99.90
32877;DHT22;19226;51.600;8.034;2023-03-30T15:51:49;15.90;99.90
32877;DHT22;19226;51.600;8.034;2023-03-30T15:54:43;16.00;99.90
32877;DHT22;19226;51.600;8.034;2023-03-30T15:57:30;16.10;99.90
32877;DHT22;19226;51.600;8.034;2023-03-30T16:00:19;16.00;99.90
32877;DHT22;19226;51.600;8.034;2023-03-30T16:03:04;16.00;99.90
32877;DHT22;19226;51.600;8.034;2023-03-30T16:05:49;15.90;99.90
32877;DHT22;19226;51.600;8.034;2023-03-30T16:08:34;15.90;99.90
32877;DHT22;19226;51.600;8.034;2023-03-30T16:11:20;15.80;99.90
32877;DHT22;19226;51.600;8.034;2023-03-30T16:14:06;15.70;99.90
32877;DHT22;19226;51.600;8.034;2023-03-30T16:16:53;15.70;99.90
32877;DHT22;19226;51.600;8.034;2023-03-30T16:19:42;15.70;99.90
32877;DHT22;19226;51.600;8.034;2023-03-30T16:22:26;15.60;99.90
32877;DHT22;19226;51.600;8.034;2023-03-30T16:25:11;15.60;99.90
32877;DHT22;19226;51.600;8.034;2023-03-30T16:27:56;15.60;99.90
32877;DHT22;19226;51.600;8.034;2023-03-30T16:30:44;15.40;99.90
32877;DHT22;19226;51.600;8.034;2023-03-30T16:33:29;15.40;99.90
32877;DHT22;19226;51.600;8.034;2023-03-30T16:36:19;15.40;99.90
32877;DHT22;19226;51.600;8.034;2023-03-30T16:39:22;15.30;99.90
32877;DHT22;19226;51.600;8.034;2023-03-30T16:42:07;15.10;99.90
32877;DHT22;19226;51.600;8.034;2023-03-30T16:44:53;14.90;99.90
32877;DHT22;19226;51.600;8.034;2023-03-30T16:47:37;14.80;99.90
32877;DHT22;19226;51.600;8.034;2023-03-30T16:50:30;14.80;99.90
32877;DHT22;19226;51.600;8.034;2023-03-30T16:53:16;14.70;99.90
32877;DHT22;19226;51.600;8.034;2023-03-30T16:56:00;14.60;99.90
32877;DHT22;19226;51.600;8.034;2023-03-30T16:58:45;14.60;99.90
32877;DHT22;19226;51.600;8.034;2023-03-30T17:01:30;14.40;99.90
32877;DHT22;19226;51.600;8.034;2023-03-30T17:04:15;14.30;99.90
32877;DHT22;19226;51.600;8.034;2023-03-30T17:06:59;14.20;99.90
32877;DHT22;19226;51.600;8.034;2023-03-30T17:09:44;14.10;99.90
32877;DHT22;19226;51.600;8.034;2023-03-30T17:12:28;14.10;99.90
32877;DHT22;19226;51.600;8.034;2023-03-30T17:15:16;14.00;99.90
32877;DHT22;19226;51.600;8.034;2023-03-30T17:18:01;14.00;99.90
32877;DHT22;19226;51.600;8.034;2023-03-30T17:20:54;14.00;99.90
32877;DHT22;19226;51.600;8.034;2023-03-30T17:23:42;13.90;99.90
32877;DHT22;19226;51.600;8.034;2023-03-30T17:26:31;13.80;99.90
32877;DHT22;19226;51.600;8.034;2023-03-30T17:29:15;13.80;99.90
32877;DHT22;19226;51.600;8.034;2023-03-30T17:32:00;13.70;99.90
32877;DHT22;19226;51.600;8.034;2023-03-30T17:34:44;13.70;99.90
32877;DHT22;19226;51.600;8.034;2023-03-30T17:37:29;13.70;99.90
32877;DHT22;19226;51.600;8.034;2023-03-30T17:40:17;13.70;99.90
32877;DHT22;19226;51.600;8.034;2023-03-30T17:43:02;13.60;99.90
32877;DHT22;19226;51.600;8.034;2023-03-30T17:45:47;13.60;99.90
32877;DHT22;19226;51.600;8.034;2023-03-30T17:48:31;13.50;99.90
32877;DHT22;19226;51.600;8.034;2023-03-30T17:51:16;13.50;99.90
32877;DHT22;19226;51.600;8.034;2023-03-30T17:54:00;13.50;99.90
32877;DHT22;19226;51.600;8.034;2023-03-30T17:56:45;13.50;99.90
32877;DHT22;19226;51.600;8.034;2023-03-30T17:59:29;13.50;99.90
32877;DHT22;19226;51.600;8.034;2023-03-30T18:02:14;13.50;99.90
32877;DHT22;19226;51.600;8.034;2023-03-30T18:04:59;13.40;99.90
32877;DHT22;19226;51.600;8.034;2023-03-30T18:07:43;13.40;99.90
32877;DHT22;19226;51.600;8.034;2023-03-30T18:10:35;13.40;99.90
32877;DHT22;19226;51.600;8.034;2023-03-30T18:13:21;13.40;99.90
32877;DHT22;19226;51.600;8.034;2023-03-30T18:16:10;13.40;99.90
32877;DHT22;19226;51.600;8.034;2023-03-30T18:18:58;13.30;99.90
32877;DHT22;19226;51.600;8.034;2023-03-30T18:21:42;13.20;99.90
32877;DHT22;19226;51.600;8.034;2023-03-30T18:24:30;13.10;99.90
32877;DHT22;19226;51.600;8.034;2023-03-30T18:27:14;13.10;99.90
32877;DHT22;19226;51.600;8.034;2023-03-30T18:29:59;13.10;99.90
32877;DHT22;19226;51.600;8.034;2023-03-30T18:32:44;13.00;99.90
32877;DHT22;19226;51.600;8.034;2023-03-30T18:35:30;13.00;99.90
32877;DHT22;19226;51.600;8.034;2023-03-30T18:38:17;12.90;99.90
32877;DHT22;19226;51.600;8.034;2023-03-30T18:41:04;12.90;99.90
32877;DHT22;19226;51.600;8.034;2023-03-30T18:43:49;12.90;99.90
32877;DHT22;19226;51.600;8.034;2023-03-30T18:46:34;12.80;99.90
32877;DHT22;19226;51.600;8.034;2023-03-30T18:49:18;12.80;99.90
32877;DHT22;19226;51.600;8.034;2023-03-30T18:52:06;12.80;99.90
32877;DHT22;19226;51.600;8.034;2023-03-30T18:54:51;12.80;99.90
32877;DHT22;19226;51.600;8.034;2023-03-30T18:57:35;12.70;99.90
32877;DHT22;19226;51.600;8.034;2023-03-30T19:00:23;12.80;99.90
32877;DHT22;19226;51.600;8.034;2023-03-30T19:03:10;12.80;99.90
32877;DHT22;19226;51.600;8.034;2023-03-30T19:05:56;12.80;99.90
32877;DHT22;19226;51.600;8.034;2023-03-30T19:08:41;12.80;99.90
32877;DHT22;19226;51.600;8.034;2023-03-30T19:11:26;12.80;99.90
32877;DHT22;19226;51.600;8.034;2023-03-30T19:14:11;12.70;99.90
32877;DHT22;19226;51.600;8.034;2023-03-30T19:16:55;12.70;99.90
32877;DHT22;19226;51.600;8.034;2023-03-30T19:19:40;12.70;99.90
32877;DHT22;19226;51.600;8.034;2023-03-30T19:22:25;12.70;99.90
32877;DHT22;19226;51.600;8.034;2023-03-30T19:25:10;12.70;99.90
32877;DHT22;19226;51.600;8.034;2023-03-30T19:27:58;12.70;99.90
32877;DHT22;19226;51.600;8.034;2023-03-30T19:30:43;12.60;99.90
32877;DHT22;19226;51.600;8.034;2023-03-30T19:33:28;12.60;99.90
32877;DHT22;19226;51.600;8.034;2023-03-30T19:36:13;12.60;99.90
32877;DHT22;19226;51.600;8.034;2023-03-30T19:38:57;12.60;99.90
32877;DHT22;19226;51.600;8.034;2023-03-30T19:41:42;12.60;99.90
32877;DHT22;19226;51.600;8.034;2023-03-30T19:44:26;12.50;99.90
32877;DHT22;19226;51.600;8.034;2023-03-30T19:47:11;12.50;99.90
32877;DHT22;19226;51.600;8.034;2023-03-30T19:49:56;12.40;99.90
32877;DHT22;19226;51.600;8.034;2023-03-30T19:52:40;12.40;99.90
32877;DHT22;19226;51.600;8.034;2023-03-30T19:55:25;12.40;99.90
32877;DHT22;19226;51.600;8.034;2023-03-30T19:58:11;12.40;99.90